createdAt,value
2022-12-23T00:02:14.051Z,100049.12
2022-12-23T00:05:17.123Z,100045.19
2022-12-23T00:08:20.764Z,100046.06
2022-12-23T00:11:27.114Z,100051.53
2022-12-23T00:14:54.840Z,100044.66
2022-12-23T00:17:57.868Z,100042.81
2022-12-23T00:21:08.315Z,100041.19
2022-12-23T00:24:12.203Z,100042.88
2022-12-23T00:27:14.786Z,100043.75
2022-12-23T00:30:20.194Z,100041.81
2022-12-23T00:33:25.494Z,100045.22
2022-12-23T00:36:30.076Z,100052.12
2022-12-23T00:39:54.932Z,100042.50
2022-12-23T00:42:59.582Z,100037.28
2022-12-23T00:46:02.178Z,100030.28
2022-12-23T00:49:24.242Z,100034.66
2022-12-23T00:52:27.499Z,100033.50
2022-12-23T00:55:30.723Z,100024.56
2022-12-23T00:58:33.302Z,100024.66
2022-12-23T01:01:55.245Z,100028.09
2022-12-23T01:05:16.691Z,100028.09
2022-12-23T01:08:19.492Z,100030.75
2022-12-23T01:11:22.024Z,100026.25
2022-12-23T01:14:25.189Z,100020.94
2022-12-23T01:17:27.770Z,100022.75
2022-12-23T01:20:40.811Z,100026.38
2022-12-23T01:23:43.449Z,100023.81
2022-12-23T01:30:30.994Z,100014.81
2022-12-23T01:33:33.948Z,100012.97
2022-12-23T01:36:36.672Z,100014.38
2022-12-23T01:39:40.016Z,100018.09
2022-12-23T01:42:46.662Z,100006.00
2022-12-23T01:45:50.522Z,100002.41
2022-12-23T01:48:53.902Z,100002.25
2022-12-23T01:51:56.855Z,99993.78
2022-12-23T01:54:59.427Z,99993.69
2022-12-23T01:58:15.067Z,99991.03
2022-12-23T02:01:36.454Z,99979.91
2022-12-23T02:04:39.780Z,99985.69
2022-12-23T02:08:02.629Z,99983.97
2022-12-23T02:11:17.855Z,99978.66
2022-12-23T02:14:40.085Z,99970.81
2022-12-23T02:17:54.960Z,99973.44
2022-12-23T02:21:33.719Z,99966.97
2022-12-23T02:25:07.916Z,99963.44
2022-12-23T02:28:13.214Z,99971.41
2022-12-23T02:31:29.929Z,99967.66
2022-12-23T02:34:35.593Z,99962.75
2022-12-23T02:38:07.100Z,99970.53
2022-12-23T02:41:16.281Z,99964.34
2022-12-23T02:44:45.085Z,99967.31
2022-12-23T02:47:56.533Z,99965.94
2022-12-23T02:51:01.596Z,99958.03
2022-12-23T02:54:08.579Z,99961.50
2022-12-23T02:57:18.125Z,99964.41
2022-12-23T03:00:23.301Z,99963.56
2022-12-23T03:03:27.202Z,99966.34
2022-12-23T03:06:35.341Z,99977.81
2022-12-23T03:09:55.897Z,99969.94
2022-12-23T03:13:10.246Z,99978.75
2022-12-23T03:16:23.482Z,99967.44
2022-12-23T03:23:30.517Z,99969.44
2022-12-23T03:26:57.167Z,99964.06
2022-12-23T03:30:05.268Z,99961.34
2022-12-23T03:36:57.376Z,99957.66
2022-12-23T03:40:10.401Z,99953.41
2022-12-23T03:43:21.099Z,99951.88
2022-12-23T03:46:33.908Z,99955.22
2022-12-23T03:57:02.397Z,99952.22
2022-12-23T04:00:06.725Z,99937.31
2022-12-23T04:03:26.884Z,99942.78
2022-12-23T04:06:39.476Z,99948.09
2022-12-23T04:09:43.482Z,99945.47
2022-12-23T04:12:46.428Z,99946.47
2022-12-23T04:15:49.337Z,99936.62
2022-12-23T04:18:52.227Z,99941.00
2022-12-23T04:21:57.064Z,99939.00
2022-12-23T04:25:02.762Z,99919.22
2022-12-23T04:28:05.691Z,99934.38
2022-12-23T04:31:08.683Z,99923.97
2022-12-23T04:34:14.524Z,99921.38
2022-12-23T04:37:17.477Z,99930.16
2022-12-23T04:43:42.000Z,99930.03
2022-12-23T04:47:05.221Z,99929.50
2022-12-23T04:50:08.540Z,99937.53
2022-12-23T04:53:11.971Z,99948.81
2022-12-23T04:56:15.963Z,99950.50
2022-12-23T04:59:18.979Z,99940.94
2022-12-23T05:02:33.752Z,99944.34
2022-12-23T05:09:22.169Z,99927.03
2022-12-23T05:23:33.111Z,99949.75
2022-12-23T05:27:45.122Z,99938.31
2022-12-23T05:31:10.800Z,99938.31
2022-12-23T05:47:56.142Z,99947.47
2022-12-23T05:54:45.409Z,99950.00
2022-12-23T06:04:58.433Z,99974.50
2022-12-23T06:11:53.363Z,99965.69
2022-12-23T06:14:56.230Z,99960.50
2022-12-23T06:21:44.848Z,99955.50
2022-12-23T06:24:48.323Z,99958.13
2022-12-23T06:27:51.787Z,99960.09
2022-12-23T06:31:15.111Z,99963.63
2022-12-23T06:37:58.061Z,99957.88
2022-12-23T06:41:11.649Z,99946.50
2022-12-23T06:44:14.550Z,99955.28
2022-12-23T06:47:19.650Z,99971.81
2022-12-23T06:50:22.669Z,99974.50
2022-12-23T06:53:26.412Z,99978.03
2022-12-23T06:56:29.204Z,99969.63
2022-12-23T07:10:12.678Z,99985.53
2022-12-23T07:13:15.825Z,99994.19
2022-12-23T07:16:18.520Z,100006.22
2022-12-23T07:19:21.521Z,100006.25
2022-12-23T07:22:24.652Z,100003.63
2022-12-23T07:25:31.126Z,100006.19
2022-12-23T07:28:36.557Z,100007.78
2022-12-23T07:32:03.971Z,100003.47
2022-12-23T07:35:06.938Z,100001.47
2022-12-23T07:38:10.054Z,99990.94
2022-12-23T07:41:13.869Z,99989.22
2022-12-23T07:44:17.170Z,99983.97
2022-12-23T07:47:19.705Z,99984.81
2022-12-23T07:57:45.334Z,99988.22
2022-12-23T08:08:52.495Z,99979.13
2022-12-23T08:11:55.293Z,99981.53
2022-12-23T08:29:48.579Z,99956.25
2022-12-23T08:32:51.527Z,99968.06
2022-12-23T08:35:54.938Z,99975.78
2022-12-23T08:39:00.480Z,99974.84
2022-12-23T08:42:03.151Z,99960.00
2022-12-23T08:45:09.488Z,99969.72
2022-12-23T08:48:12.929Z,99968.09
2022-12-23T08:51:17.839Z,99970.00
2022-12-23T09:05:41.092Z,99914.06
2022-12-23T09:28:06.203Z,99958.25
2022-12-23T09:31:13.238Z,99952.94
2022-12-23T09:34:15.788Z,99951.28
2022-12-23T09:37:19.177Z,99942.38
2022-12-23T09:40:23.453Z,99937.09
2022-12-23T09:43:43.355Z,99935.34
2022-12-23T09:46:58.763Z,99934.53
2022-12-23T09:50:10.517Z,99919.88
2022-12-23T09:53:30.295Z,99920.03
2022-12-23T09:56:48.127Z,99924.09
2022-12-23T10:00:02.987Z,99935.34
2022-12-23T10:03:34.806Z,99928.03
2022-12-23T10:06:39.583Z,99924.87
2022-12-23T10:28:22.772Z,99883.22
2022-12-23T12:58:24.555Z,99858.78
2022-12-23T13:01:48.435Z,99859.72
2022-12-23T13:05:29.212Z,99854.66
2022-12-23T13:08:39.587Z,99858.75
2022-12-23T13:11:59.637Z,99859.56
2022-12-23T13:15:11.556Z,99868.84
2022-12-23T13:18:29.341Z,99870.47
2022-12-23T13:21:45.687Z,99860.94
2022-12-23T13:24:59.727Z,99866.00
2022-12-23T13:28:27.076Z,99872.56
2022-12-23T13:32:00.039Z,99867.44
2022-12-23T13:39:27.041Z,99860.72
2022-12-23T13:42:38.395Z,99858.22
2022-12-23T13:45:42.632Z,99852.47
2022-12-23T13:56:27.221Z,99874.69
2022-12-23T13:59:39.905Z,99876.12
2022-12-23T14:02:50.241Z,99862.94
2022-12-23T14:05:53.692Z,99865.53
2022-12-23T14:08:56.437Z,99857.34
2022-12-23T14:12:28.859Z,99867.06
2022-12-23T14:16:14.581Z,99865.44
2022-12-23T14:19:55.473Z,99864.53
2022-12-23T14:23:19.960Z,99875.53
2022-12-23T14:26:46.142Z,99879.06
2022-12-23T14:29:51.860Z,99879.06
2022-12-23T14:33:01.153Z,99883.19
2022-12-23T14:36:24.851Z,99881.47
2022-12-23T14:39:33.293Z,99884.66
2022-12-23T14:42:40.977Z,99890.81
2022-12-23T14:45:44.845Z,99878.41
2022-12-23T14:48:59.575Z,99889.78
2022-12-23T14:52:39.192Z,99893.38
2022-12-23T14:55:46.795Z,99889.78
2022-12-23T14:59:11.567Z,99887.31
2022-12-23T15:02:20.321Z,99885.56
2022-12-23T15:05:23.927Z,99888.03
2022-12-23T15:08:39.349Z,99892.28
2022-12-23T15:11:42.879Z,99892.22
2022-12-23T15:14:51.955Z,99894.84
2022-12-23T15:18:03.681Z,99901.00
2022-12-23T15:21:12.472Z,99908.16
2022-12-23T15:24:17.506Z,99916.00
2022-12-23T15:27:29.796Z,99921.03
2022-12-23T15:30:56.231Z,99916.56
2022-12-23T15:34:07.809Z,99906.78
2022-12-23T15:37:17.654Z,99898.38
2022-12-23T15:40:31.940Z,99893.38
2022-12-23T15:43:40.937Z,99913.09
2022-12-23T15:46:44.411Z,99906.25
2022-12-23T15:49:47.454Z,99897.44
2022-12-23T15:52:53.937Z,99909.81
2022-12-23T15:55:56.836Z,99916.91
2022-12-23T15:59:02.237Z,99909.06
2022-12-23T16:02:58.854Z,99905.22
2022-12-23T16:05:48.298Z,99900.56
